This is the latest recevied weather packets stored in our database for station/object K4PAD. If no packets are shown the sender has not sent any weather packets the latest 10 day(s).
| Time | Temp. | Humidity | Pressure | Rain* | Wind** | Luminosity | Snow |
|---|---|---|---|---|---|---|---|
| 1777993694 | 26.67° C | 49% | 1018.9 hPa | 0 mm | - | 844 W/m² | - |
| 1777993391 | 26.67° C | 48% | 1018.7 hPa | 0 mm | - | 824 W/m² | - |
| 1777993085 | 26.11° C | 51% | 1018.7 hPa | 0 mm | - | 824 W/m² | - |
| 1777992784 | 26.67° C | 51% | 1018.7 hPa | 0 mm | - | 797 W/m² | - |
| 1777992480 | 26.11° C | 51% | 1018.8 hPa | 0 mm | - | 794 W/m² | - |
| 1777992179 | 25.56° C | 54% | 1018.8 hPa | 0 mm | - | 769 W/m² | - |
| 1777991875 | 25.56° C | 55% | 1018.7 hPa | 0 mm | - | 755 W/m² | - |
| 1777991573 | 25.56° C | 55% | 1019 hPa | 0 mm | - | 739 W/m² | - |
| 1777991270 | 25° C | 58% | 1018.9 hPa | 0 mm | - | 719 W/m² | - |
| 1777990967 | 25.56° C | 56% | 1018.6 hPa | 0 mm | - | 701 W/m² | - |
| 1777990665 | 26.11° C | 55% | 1018.8 hPa | 0 mm | - | 678 W/m² | - |
| 1777990362 | 25.56° C | 57% | 1018.7 hPa | 0 mm | - | 661 W/m² | - |
| 1777990058 | 25° C | 57% | 1018.6 hPa | 0 mm | - | 639 W/m² | - |
| 1777989755 | 25° C | 58% | 1018.8 hPa | 0 mm | - | 618 W/m² | - |
| 1777989451 | 25° C | 58% | 1018.5 hPa | 0 mm | - | 600 W/m² | - |
| 1777989148 | 25° C | 57% | 1018.7 hPa | 0 mm | - | 581 W/m² | - |
| 1777988844 | 25° C | 59% | 1018.7 hPa | 0 mm | - | 563 W/m² | - |
| 1777988541 | 24.44° C | 59% | 1018.6 hPa | 0 mm | - | 541 W/m² | - |
| 1777988238 | 24.44° C | 58% | 1018.6 hPa | 0 mm | - | 524 W/m² | - |
| 1777987934 | 24.44° C | 61% | 1018.5 hPa | 0 mm | - | 502 W/m² | - |
| 1777987630 | 24.44° C | 60% | 1018.5 hPa | 0 mm | - | 481 W/m² | - |
| 1777987328 | 24.44° C | 61% | 1018.5 hPa | 0 mm | - | 460 W/m² | - |
| 1777987025 | 23.89° C | 63% | 1018.5 hPa | 0 mm | - | 440 W/m² | - |
| 1777986722 | 23.89° C | 63% | 1018.3 hPa | 0 mm | - | 417 W/m² | - |
| 1777986420 | 23.33° C | 64% | 1018.2 hPa | 0 mm | - | 391 W/m² | - |
* Rain latest hour (hover to see other rain measurements)
** Current wind speed in m/s (hover to see current wind gust speed)